Time;durP1;ratioP1;P1;durP2;ratioP2;P2;SDS_P1;SDS_P2;PMS_P1;PMS_P2;Temp;Humidity;BMP_temperature;BMP_pressure;BME280_temperature;BME280_humidity;BME280_pressure;Samples;Min_cycle;Max_cycle;Signal;HPM_P1;HPM_P2
2022/11/05 00:10:18;;;;;;;50.00;24.10;;;;;;;;;;2106243;28;20485;-42
2022/11/05 00:16:42;;;;;;;45.15;22.20;;;;;;;;;;2106139;28;20508;-41
2022/11/05 00:16:44;;;;;;;47.78;24.50;;;;;;;;;;2097838;28;20059;-41
2022/11/05 00:17:45;;;;;;;44.80;24.55;;;;;;;;;;2097726;28;20409;-42
2022/11/05 00:19:05;;;;;;;47.37;24.40;;;;;;;;;;2097938;28;20131;-42
2022/11/05 00:20:07;;;;;;;51.78;26.33;;;;;;;;;;2097769;28;20045;-42
2022/11/05 00:25:12;;;;;;;54.53;27.25;;;;;;;;;;2097742;28;20049;-42
2022/11/05 00:25:16;;;;;;;54.42;26.02;;;;;;;;;;2097760;28;20053;-41
2022/11/05 00:26:17;;;;;;;55.22;28.27;;;;;;;;;;2097745;28;20071;-41
2022/11/05 00:27:18;;;;;;;58.50;27.00;;;;;;;;;;2097695;28;20047;-41
2022/11/05 00:28:20;;;;;;;63.22;31.50;;;;;;;;;;2097766;28;20052;-41
2022/11/05 00:29:20;;;;;;;77.40;35.67;;;;;;;;;;2097864;28;20574;-45
2022/11/05 00:30:23;;;;;;;75.90;34.40;;;;;;;;;;2097789;28;20052;-45
2022/11/05 00:31:23;;;;;;;98.80;39.72;;;;;;;;;;2097658;28;20055;-45
2022/11/05 00:32:25;;;;;;;113.17;49.03;;;;;;;;;;2102810;28;20067;-43
2022/11/05 00:33:26;;;;;;;120.10;45.17;;;;;;;;;;2106022;28;20056;-44
2022/11/05 00:34:27;;;;;;;119.68;44.45;;;;;;;;;;2106228;28;20044;-44
2022/11/05 00:35:29;;;;;;;129.68;47.60;;;;;;;;;;2106045;28;20044;-44
2022/11/05 00:36:30;;;;;;;;;;;;;;;;;;2106677;28;20043;-41
2022/11/05 00:37:31;;;;;;;137.05;45.15;;;;;;;;;;2105963;28;20007;-41
2022/11/05 00:38:32;;;;;;;148.25;45.65;;;;;;;;;;2105947;28;20044;-42
2022/11/05 00:39:33;;;;;;;180.60;52.65;;;;;;;;;;2105939;28;20054;-41
2022/11/05 00:40:34;;;;;;;186.13;47.95;;;;;;;;;;2106036;28;20051;-42
2022/11/05 00:41:35;;;;;;;275.52;53.83;;;;;;;;;;2106147;28;20052;-41
2022/11/05 00:45:18;;;;;;;235.60;59.38;;;;;;;;;;2106354;28;20093;-41
2022/11/05 00:46:19;;;;;;;246.40;64.65;;;;;;;;;;2106100;28;20059;-41
2022/11/05 00:50:09;;;;;;;183.38;55.10;;;;;;;;;;2088572;28;20045;-41
2022/11/05 00:51:10;;;;;;;202.20;55.53;;;;;;;;;;2100008;28;20110;-44
2022/11/05 00:53:31;;;;;;;193.32;58.08;;;;;;;;;;2105880;28;20048;-44
2022/11/05 00:54:32;;;;;;;178.52;59.58;;;;;;;;;;2106300;28;20067;-44
2022/11/05 00:55:36;;;;;;;184.63;59.00;;;;;;;;;;2105477;28;20070;-43
2022/11/05 00:56:37;;;;;;;181.07;58.67;;;;;;;;;;2106060;28;20044;-41
2022/11/05 00:57:40;;;;;;;173.57;58.93;;;;;;;;;;2105900;28;20052;-41
2022/11/05 00:58:41;;;;;;;180.30;55.58;;;;;;;;;;2105908;28;20489;-44
2022/11/05 00:59:42;;;;;;;162.45;54.90;;;;;;;;;;2105967;28;20048;-45
2022/11/05 01:00:45;;;;;;;188.13;55.80;;;;;;;;;;2105987;28;20117;-44
2022/11/05 01:01:45;;;;;;;186.48;55.75;;;;;;;;;;2105950;28;20047;-45
2022/11/05 01:02:47;;;;;;;176.57;51.50;;;;;;;;;;2106144;28;20048;-45
2022/11/05 01:03:48;;;;;;;175.10;53.70;;;;;;;;;;2105969;28;20048;-41
2022/11/05 01:04:52;;;;;;;156.00;50.90;;;;;;;;;;2106072;28;20162;-44
2022/11/05 01:05:55;;;;;;;168.43;51.43;;;;;;;;;;2105834;28;20074;-45
2022/11/05 01:06:56;;;;;;;167.52;52.22;;;;;;;;;;2105779;28;20438;-44
2022/11/05 01:07:57;;;;;;;151.90;46.30;;;;;;;;;;2105915;28;20048;-45
2022/11/05 01:08:58;;;;;;;149.38;47.63;;;;;;;;;;2105878;28;20044;-45
2022/11/05 01:10:00;;;;;;;142.10;45.42;;;;;;;;;;2105881;28;20140;-45
2022/11/05 01:11:06;;;;;;;144.80;48.58;;;;;;;;;;2106218;28;20051;-41
2022/11/05 01:12:07;;;;;;;141.52;48.33;;;;;;;;;;2106169;28;20052;-45
2022/11/05 01:13:10;;;;;;;133.17;46.17;;;;;;;;;;2104763;28;20485;-44
2022/11/05 01:14:14;;;;;;;130.18;46.53;;;;;;;;;;2097398;28;20482;-45
2022/11/05 01:15:16;;;;;;;130.55;45.75;;;;;;;;;;2099553;28;20044;-44
2022/11/05 01:16:17;;;;;;;133.05;46.88;;;;;;;;;;2106132;28;20048;-41
2022/11/05 01:17:18;;;;;;;134.80;47.95;;;;;;;;;;2105854;28;20401;-41
2022/11/05 01:18:20;;;;;;;126.88;44.30;;;;;;;;;;2105820;28;20175;-41
2022/11/05 01:19:21;;;;;;;122.45;44.63;;;;;;;;;;2106111;28;20452;-44
2022/11/05 01:20:22;;;;;;;116.60;44.47;;;;;;;;;;2105806;28;20141;-46
2022/11/05 01:21:23;;;;;;;131.73;45.05;;;;;;;;;;2105694;28;20044;-44
2022/11/05 01:22:24;;;;;;;127.60;44.88;;;;;;;;;;2105897;28;20059;-44
2022/11/05 01:23:25;;;;;;;120.95;43.25;;;;;;;;;;2105832;28;20504;-44
2022/11/05 01:24:26;;;;;;;120.87;38.60;;;;;;;;;;2105905;28;20075;-45
2022/11/05 01:25:27;;;;;;;128.88;44.30;;;;;;;;;;2105814;28;20040;-44
2022/11/05 01:26:29;;;;;;;117.90;43.87;;;;;;;;;;2105741;28;20102;-45
2022/11/05 01:27:30;;;;;;;114.60;43.33;;;;;;;;;;2105680;28;20508;-45
2022/11/05 01:28:32;;;;;;;117.07;45.23;;;;;;;;;;2105484;28;20040;-45
2022/11/05 01:29:33;;;;;;;;;;;;;;;;;;2106254;28;20048;-45
2022/11/05 01:30:34;;;;;;;115.35;44.05;;;;;;;;;;2105641;28;19919;-45
2022/11/05 01:31:35;;;;;;;112.50;43.28;;;;;;;;;;2106076;28;20063;-42
2022/11/05 01:32:37;;;;;;;103.60;41.67;;;;;;;;;;2105758;28;20135;-42
2022/11/05 01:33:38;;;;;;;105.72;42.67;;;;;;;;;;2105721;28;20056;-42
2022/11/05 01:34:39;;;;;;;94.10;41.30;;;;;;;;;;2105708;28;20135;-41
2022/11/05 01:35:40;;;;;;;92.78;43.13;;;;;;;;;;2105743;28;20062;-41
2022/11/05 01:36:41;;;;;;;100.87;40.87;;;;;;;;;;2105674;28;20059;-41
2022/11/05 01:37:42;;;;;;;96.60;41.55;;;;;;;;;;2105807;28;20094;-41
2022/11/05 01:38:43;;;;;;;98.43;40.22;;;;;;;;;;2105869;28;20331;-45
2022/11/05 01:39:44;;;;;;;84.40;38.75;;;;;;;;;;2106048;28;20119;-42
2022/11/05 01:40:45;;;;;;;82.43;36.27;;;;;;;;;;2106483;28;20052;-46
2022/11/05 01:41:46;;;;;;;89.30;39.30;;;;;;;;;;2105872;28;20050;-41
2022/11/05 01:42:48;;;;;;;86.38;39.53;;;;;;;;;;2106189;28;20051;-41
2022/11/05 01:43:51;;;;;;;90.05;39.88;;;;;;;;;;2105696;28;20048;-46
2022/11/05 01:44:53;;;;;;;95.93;41.20;;;;;;;;;;2105577;28;20048;-45
2022/11/05 01:45:56;;;;;;;98.50;41.88;;;;;;;;;;2105835;28;20117;-41
2022/11/05 01:46:57;;;;;;;114.93;42.15;;;;;;;;;;2105656;28;20044;-41
2022/11/05 01:48:05;;;;;;;100.30;39.22;;;;;;;;;;2105724;28;20052;-41
2022/11/05 01:49:11;;;;;;;97.72;42.08;;;;;;;;;;2105896;28;20152;-44
2022/11/05 01:50:22;;;;;;;97.00;41.40;;;;;;;;;;2105996;28;20480;-44
2022/11/05 01:51:25;;;;;;;131.52;45.55;;;;;;;;;;2105750;28;20051;-41
2022/11/05 01:52:27;;;;;;;105.25;41.38;;;;;;;;;;2106187;28;20048;-41
2022/11/05 01:53:31;;;;;;;102.13;42.80;;;;;;;;;;2106505;28;20081;-44
2022/11/05 01:54:35;;;;;;;111.07;41.75;;;;;;;;;;2105599;28;20098;-44
2022/11/05 01:55:39;;;;;;;91.53;41.42;;;;;;;;;;2106244;28;20083;-45
2022/11/05 01:56:42;;;;;;;106.55;42.03;;;;;;;;;;2106361;28;20123;-44
2022/11/05 01:57:43;;;;;;;103.80;41.50;;;;;;;;;;2105845;28;20044;-41
2022/11/05 01:58:47;;;;;;;86.47;35.83;;;;;;;;;;2105494;28;20044;-41
2022/11/05 01:59:50;;;;;;;100.50;40.78;;;;;;;;;;2105732;28;20044;-41
2022/11/05 02:00:52;;;;;;;98.65;41.67;;;;;;;;;;2105653;28;20048;-41
2022/11/05 02:01:53;;;;;;;103.63;41.67;;;;;;;;;;2106237;28;20048;-41
2022/11/05 02:02:55;;;;;;;102.35;41.15;;;;;;;;;;2106107;28;20048;-44
2022/11/05 02:03:58;;;;;;;107.95;42.17;;;;;;;;;;2105460;28;20484;-41
2022/11/05 02:05:02;;;;;;;92.93;39.47;;;;;;;;;;2105864;28;20052;-44
2022/11/05 02:06:08;;;;;;;95.50;40.78;;;;;;;;;;2106180;28;20040;-45
2022/11/05 02:07:09;;;;;;;89.85;40.50;;;;;;;;;;2106330;28;20048;-44
2022/11/05 02:08:12;;;;;;;115.80;41.15;;;;;;;;;;2105542;28;20140;-44
2022/11/05 02:09:15;;;;;;;108.55;40.63;;;;;;;;;;2105640;28;20048;-41
2022/11/05 02:10:17;;;;;;;104.25;39.97;;;;;;;;;;2105649;28;20055;-43
2022/11/05 02:11:18;;;;;;;156.85;40.22;;;;;;;;;;2106405;28;20043;-41
2022/11/05 02:12:20;;;;;;;158.80;41.50;;;;;;;;;;2107508;28;20390;-44
2022/11/05 02:13:21;;;;;;;122.00;37.63;;;;;;;;;;2104441;28;20048;-41
2022/11/05 02:14:22;;;;;;;139.07;39.87;;;;;;;;;;2098850;28;20052;-42
2022/11/05 02:15:29;;;;;;;125.45;38.67;;;;;;;;;;2102175;28;20509;-44
2022/11/05 02:16:37;;;;;;;124.00;37.35;;;;;;;;;;2107078;28;20048;-45
2022/11/05 02:17:43;;;;;;;123.90;39.40;;;;;;;;;;2107811;28;20304;-44
2022/11/05 02:18:49;;;;;;;109.65;38.08;;;;;;;;;;2106930;28;20044;-45
2022/11/05 02:20:05;;;;;;;102.75;37.85;;;;;;;;;;2107542;28;20048;-41
2022/11/05 02:21:25;;;;;;;171.30;39.45;;;;;;;;;;2107033;28;20113;-41
2022/11/05 02:22:45;;;;;;;121.25;32.92;;;;;;;;;;2107075;28;20044;-41
2022/11/05 02:24:10;;;;;;;118.38;37.92;;;;;;;;;;2099341;28;20041;-42
2022/11/05 02:25:25;;;;;;;107.28;37.03;;;;;;;;;;2105886;28;20047;-41
2022/11/05 02:26:39;;;;;;;94.60;37.63;;;;;;;;;;2107391;28;20051;-42
2022/11/05 02:27:49;;;;;;;159.95;39.35;;;;;;;;;;2106802;28;20048;-41
2022/11/05 02:29:09;;;;;;;142.65;37.97;;;;;;;;;;2106850;28;20081;-42
2022/11/05 02:30:25;;;;;;;172.57;38.95;;;;;;;;;;2107195;28;20515;-45
2022/11/05 02:31:30;;;;;;;206.75;38.45;;;;;;;;;;2106748;28;20064;-41
2022/11/05 02:32:37;;;;;;;181.93;39.40;;;;;;;;;;2106842;28;20044;-41
2022/11/05 02:33:42;;;;;;;197.93;38.85;;;;;;;;;;2107180;28;20052;-42
2022/11/05 02:34:48;;;;;;;143.48;36.97;;;;;;;;;;2107055;28;20092;-41
2022/11/05 02:36:07;;;;;;;171.40;38.67;;;;;;;;;;2106991;28;20040;-42
2022/11/05 02:37:10;;;;;;;153.82;37.05;;;;;;;;;;2106896;28;20051;-44
2022/11/05 02:38:16;;;;;;;148.85;37.50;;;;;;;;;;2107141;28;20044;-41
2022/11/05 02:39:24;;;;;;;159.45;38.90;;;;;;;;;;2106965;28;20047;-42
2022/11/05 02:40:28;;;;;;;182.00;37.45;;;;;;;;;;2106966;28;20054;-44
2022/11/05 02:41:32;;;;;;;145.85;37.15;;;;;;;;;;2107139;28;20048;-41
2022/11/05 02:42:38;;;;;;;145.30;36.55;;;;;;;;;;2106852;28;20394;-41
2022/11/05 02:43:44;;;;;;;137.45;37.03;;;;;;;;;;2106823;28;20048;-45
2022/11/05 02:44:51;;;;;;;162.75;35.15;;;;;;;;;;2106730;28;20048;-45
2022/11/05 02:45:59;;;;;;;123.85;36.33;;;;;;;;;;2106834;28;20076;-41
2022/11/05 02:47:05;;;;;;;107.90;35.50;;;;;;;;;;2107183;28;20040;-41
2022/11/05 02:48:09;;;;;;;107.63;34.13;;;;;;;;;;2106828;28;20054;-42
2022/11/05 02:49:17;;;;;;;86.65;35.03;;;;;;;;;;2106691;28;20320;-41
2022/11/05 02:50:23;;;;;;;97.00;34.85;;;;;;;;;;2106970;28;20048;-41
2022/11/05 02:51:30;;;;;;;77.13;32.78;;;;;;;;;;2106824;28;20315;-41
2022/11/05 02:52:34;;;;;;;80.40;32.50;;;;;;;;;;2106963;28;20400;-42
2022/11/05 02:53:39;;;;;;;70.88;34.40;;;;;;;;;;2106555;28;20508;-41
2022/11/05 02:54:42;;;;;;;88.03;34.42;;;;;;;;;;2106793;28;20052;-41
2022/11/05 02:55:46;;;;;;;74.07;34.60;;;;;;;;;;2106552;28;20401;-41
2022/11/05 02:56:48;;;;;;;81.72;33.75;;;;;;;;;;2106855;28;20131;-41
2022/11/05 02:57:49;;;;;;;;;;;;;;;;;;2107078;28;20052;-41
2022/11/05 02:58:50;;;;;;;77.22;29.90;;;;;;;;;;2106581;28;19931;-41
2022/11/05 02:59:59;;;;;;;75.57;34.92;;;;;;;;;;2106941;28;20055;-46
2022/11/05 03:01:05;;;;;;;78.22;31.27;;;;;;;;;;2107003;28;20056;-45
2022/11/05 03:02:06;;;;;;;65.47;31.33;;;;;;;;;;2106639;28;20052;-44
2022/11/05 03:03:11;;;;;;;71.68;30.40;;;;;;;;;;2106650;28;20400;-46
2022/11/05 03:04:14;;;;;;;64.78;31.35;;;;;;;;;;2106505;28;20047;-45
2022/11/05 03:05:15;;;;;;;69.13;31.35;;;;;;;;;;2106730;28;20097;-45
2022/11/05 03:06:25;;;;;;;69.53;27.77;;;;;;;;;;2106640;28;20109;-45
2022/11/05 03:07:41;;;;;;;65.25;28.35;;;;;;;;;;2106558;28;20408;-45
2022/11/05 03:08:52;;;;;;;61.28;27.52;;;;;;;;;;2106663;28;20052;-45
2022/11/05 03:10:02;;;;;;;72.60;30.70;;;;;;;;;;2106687;28;20130;-45
2022/11/05 03:11:06;;;;;;;62.25;30.17;;;;;;;;;;2106704;28;20048;-45
2022/11/05 03:12:15;;;;;;;71.65;31.20;;;;;;;;;;2106826;28;20532;-41
2022/11/05 03:13:21;;;;;;;65.35;28.63;;;;;;;;;;2104581;28;20485;-41
2022/11/05 03:14:25;;;;;;;56.15;25.13;;;;;;;;;;2098350;28;20094;-41
2022/11/05 03:15:33;;;;;;;65.43;30.27;;;;;;;;;;2098176;28;20044;-41
2022/11/05 03:16:38;;;;;;;67.05;29.58;;;;;;;;;;2098483;28;20686;-45
2022/11/05 03:17:43;;;;;;;65.18;28.50;;;;;;;;;;2098348;28;20079;-41
2022/11/05 03:18:46;;;;;;;59.08;27.45;;;;;;;;;;2098039;28;20052;-41
2022/11/05 03:19:49;;;;;;;56.72;26.83;;;;;;;;;;2098328;28;20056;-45
2022/11/05 03:20:53;;;;;;;49.13;24.70;;;;;;;;;;2101233;28;20044;-44
2022/11/05 03:21:57;;;;;;;46.65;24.65;;;;;;;;;;2106625;28;20496;-41
2022/11/05 03:23:02;;;;;;;56.20;26.25;;;;;;;;;;2106507;28;20048;-41
2022/11/05 03:24:07;;;;;;;54.90;27.38;;;;;;;;;;2106584;28;20500;-42
2022/11/05 03:25:11;;;;;;;49.83;24.65;;;;;;;;;;2106928;28;20101;-41
2022/11/05 03:26:16;;;;;;;52.53;25.50;;;;;;;;;;2106505;28;20416;-41
2022/11/05 03:27:18;;;;;;;55.17;25.85;;;;;;;;;;2106453;28;20048;-41
2022/11/05 03:28:22;;;;;;;49.65;26.20;;;;;;;;;;2106407;28;20052;-41
2022/11/05 03:29:24;;;;;;;54.85;26.27;;;;;;;;;;2106489;28;20048;-41
2022/11/05 03:30:25;;;;;;;51.95;26.88;;;;;;;;;;2106572;28;20048;-41
2022/11/05 03:31:28;;;;;;;51.83;26.52;;;;;;;;;;2106502;28;20055;-41
2022/11/05 03:32:33;;;;;;;52.88;25.73;;;;;;;;;;2106438;28;20052;-45
2022/11/05 03:33:35;;;;;;;54.97;23.42;;;;;;;;;;2106414;28;20055;-45
2022/11/05 03:34:39;;;;;;;49.13;25.38;;;;;;;;;;2106704;28;20047;-45
2022/11/05 03:35:42;;;;;;;51.47;26.08;;;;;;;;;;2106306;28;20043;-45
2022/11/05 03:36:46;;;;;;;42.85;21.90;;;;;;;;;;2106724;28;20571;-44
2022/11/05 03:37:49;;;;;;;52.92;25.63;;;;;;;;;;2106580;28;20044;-44
2022/11/05 03:38:51;;;;;;;60.65;27.48;;;;;;;;;;2106239;28;20101;-44
2022/11/05 03:39:55;;;;;;;69.20;28.17;;;;;;;;;;2106872;28;20055;-41
2022/11/05 03:40:59;;;;;;;68.72;27.70;;;;;;;;;;2106353;28;20079;-41
2022/11/05 03:42:01;;;;;;;61.65;26.42;;;;;;;;;;2107024;28;20052;-41
2022/11/05 03:43:04;;;;;;;70.28;28.13;;;;;;;;;;2106364;28;20044;-40
2022/11/05 03:44:06;;;;;;;81.18;28.48;;;;;;;;;;2106370;28;20048;-41
2022/11/05 03:45:09;;;;;;;58.25;27.95;;;;;;;;;;2106722;28;20055;-45
2022/11/05 03:46:12;;;;;;;78.85;27.23;;;;;;;;;;2106554;28;20044;-45
2022/11/05 03:47:16;;;;;;;72.60;23.50;;;;;;;;;;2106300;28;20055;-45
2022/11/05 03:48:18;;;;;;;79.35;27.92;;;;;;;;;;2106289;28;20097;-45
2022/11/05 03:49:21;;;;;;;87.82;28.23;;;;;;;;;;2106337;28;20131;-45
2022/11/05 03:50:24;;;;;;;66.03;27.17;;;;;;;;;;2106750;28;20044;-41
2022/11/05 03:51:29;;;;;;;65.50;26.92;;;;;;;;;;2106673;28;20044;-41
2022/11/05 03:52:32;;;;;;;83.30;28.42;;;;;;;;;;2106883;28;20052;-41
2022/11/05 03:53:36;;;;;;;105.53;27.77;;;;;;;;;;2106486;28;20048;-41
2022/11/05 03:54:37;;;;;;;71.35;27.20;;;;;;;;;;2106283;28;20050;-41
2022/11/05 03:55:43;;;;;;;85.23;26.87;;;;;;;;;;2106373;28;20051;-41
2022/11/05 03:56:46;;;;;;;66.80;24.02;;;;;;;;;;2106301;28;20051;-41
2022/11/05 03:57:49;;;;;;;71.75;26.33;;;;;;;;;;2106940;28;20074;-45
2022/11/05 03:58:50;;;;;;;76.25;27.90;;;;;;;;;;2106342;28;20055;-44
2022/11/05 03:59:59;;;;;;;56.78;25.15;;;;;;;;;;2106446;28;20059;-44
2022/11/05 04:01:00;;;;;;;68.55;25.50;;;;;;;;;;2106491;28;20052;-41
2022/11/05 04:02:02;;;;;;;62.53;25.15;;;;;;;;;;2106459;28;20514;-41
2022/11/05 04:03:03;;;;;;;42.80;20.10;;;;;;;;;;2106287;28;20052;-41
2022/11/05 04:04:05;;;;;;;48.60;23.60;;;;;;;;;;2106257;28;20048;-41
2022/11/05 04:05:06;;;;;;;55.42;24.75;;;;;;;;;;2106175;28;20047;-41
2022/11/05 04:14:06;;;;;;;81.30;23.75;;;;;;;;;;2098045;28;20044;-44
2022/11/05 04:15:07;;;;;;;60.13;21.88;;;;;;;;;;2098257;28;20032;-41
2022/11/05 04:17:28;;;;;;;78.38;20.48;;;;;;;;;;2103529;28;20044;-40
2022/11/05 04:18:28;;;;;;;57.70;18.50;;;;;;;;;;2105891;28;20032;-41
2022/11/05 04:24:48;;;;;;;111.15;31.75;;;;;;;;;;2106500;28;20047;-41
2022/11/05 04:25:49;;;;;;;56.42;20.33;;;;;;;;;;2106199;28;20067;-41
2022/11/05 04:26:50;;;;;;;105.35;25.30;;;;;;;;;;2106316;28;20047;-44
2022/11/05 04:27:51;;;;;;;79.25;22.63;;;;;;;;;;2106280;28;20509;-41
2022/11/05 04:30:18;;;;;;;90.65;21.38;;;;;;;;;;2106103;28;20071;-41
2022/11/05 04:31:19;;;;;;;105.50;24.58;;;;;;;;;;2106180;28;20044;-41
2022/11/05 04:32:20;;;;;;;88.70;22.50;;;;;;;;;;2106127;28;20079;-41
2022/11/05 04:33:22;;;;;;;72.78;20.33;;;;;;;;;;2106076;28;20052;-41
2022/11/05 04:34:23;;;;;;;127.07;27.08;;;;;;;;;;2105507;28;20070;-41
2022/11/05 04:35:25;;;;;;;125.80;25.87;;;;;;;;;;2106275;28;20425;-45
2022/11/05 04:36:26;;;;;;;;;;;;;;;;;;2106620;28;20050;-46
2022/11/05 04:37:26;;;;;;;91.65;20.80;;;;;;;;;;2106000;28;20026;-45
2022/11/05 04:38:28;;;;;;;121.63;26.48;;;;;;;;;;2106122;28;20083;-45
2022/11/05 04:39:29;;;;;;;119.13;25.48;;;;;;;;;;2106034;28;20048;-45
2022/11/05 04:40:30;;;;;;;111.95;23.38;;;;;;;;;;2106048;28;20048;-45
2022/11/05 04:41:31;;;;;;;198.57;34.15;;;;;;;;;;2105993;28;20642;-44
2022/11/05 04:42:32;;;;;;;162.80;27.88;;;;;;;;;;2106071;28;20071;-44
2022/11/05 04:43:33;;;;;;;129.90;24.17;;;;;;;;;;2105928;28;20048;-45
2022/11/05 04:44:34;;;;;;;90.47;25.23;;;;;;;;;;2106181;28;20127;-44
2022/11/05 04:45:36;;;;;;;123.50;25.70;;;;;;;;;;2106083;28;20076;-44
2022/11/05 04:46:38;;;;;;;150.73;29.20;;;;;;;;;;2106094;28;20075;-45
2022/11/05 04:47:39;;;;;;;155.68;29.52;;;;;;;;;;2105955;28;20476;-46
2022/11/05 04:48:40;;;;;;;178.02;30.73;;;;;;;;;;2105826;28;20052;-45
2022/11/05 04:49:41;;;;;;;152.02;29.33;;;;;;;;;;2105877;28;20052;-45
2022/11/05 04:50:43;;;;;;;158.63;28.83;;;;;;;;;;2106115;28;20126;-45
2022/11/05 04:51:44;;;;;;;202.27;31.42;;;;;;;;;;2106034;28;20048;-46
2022/11/05 04:52:46;;;;;;;156.77;26.98;;;;;;;;;;2105893;28;20044;-41
2022/11/05 04:53:47;;;;;;;174.10;32.43;;;;;;;;;;2106072;28;20043;-46
2022/11/05 04:54:49;;;;;;;161.27;30.67;;;;;;;;;;2106053;28;20056;-47
2022/11/05 04:55:50;;;;;;;168.35;33.50;;;;;;;;;;2105881;28;20040;-45
2022/11/05 04:56:51;;;;;;;122.32;29.98;;;;;;;;;;2106069;28;20052;-45
2022/11/05 04:57:53;;;;;;;98.47;26.43;;;;;;;;;;2105902;28;20083;-45
2022/11/05 04:58:54;;;;;;;105.95;31.00;;;;;;;;;;2105935;28;20044;-44
2022/11/05 04:59:55;;;;;;;108.60;28.38;;;;;;;;;;2105812;28;20089;-44
2022/11/05 05:00:56;;;;;;;114.60;28.70;;;;;;;;;;2106234;28;20048;-41
2022/11/05 05:01:57;;;;;;;120.47;32.90;;;;;;;;;;2105855;28;20529;-41
2022/11/05 05:02:59;;;;;;;150.30;29.90;;;;;;;;;;2106247;28;20097;-45
2022/11/05 05:04:00;;;;;;;112.07;32.88;;;;;;;;;;2105808;28;20051;-44
2022/11/05 05:05:01;;;;;;;160.77;32.22;;;;;;;;;;2106160;28;20044;-45
2022/11/05 05:06:03;;;;;;;150.32;32.08;;;;;;;;;;2105875;28;20056;-45
2022/11/05 05:07:04;;;;;;;154.23;31.85;;;;;;;;;;2105791;28;20488;-44
2022/11/05 05:08:06;;;;;;;162.57;30.77;;;;;;;;;;2105828;28;20051;-44
2022/11/05 05:09:06;;;;;;;102.85;25.70;;;;;;;;;;2105806;28;20052;-45
2022/11/05 05:10:08;;;;;;;139.50;25.33;;;;;;;;;;2105989;28;20077;-45
2022/11/05 05:11:10;;;;;;;235.70;37.88;;;;;;;;;;2105394;28;20105;-41
2022/11/05 05:12:11;;;;;;;176.77;32.53;;;;;;;;;;2105745;28;20056;-41
2022/11/05 05:13:12;;;;;;;136.88;28.95;;;;;;;;;;2105211;28;20044;-41
2022/11/05 05:14:14;;;;;;;89.45;23.05;;;;;;;;;;2105728;28;20201;-41
2022/11/05 05:15:14;;;;;;;134.63;30.58;;;;;;;;;;2105765;28;20052;-41
2022/11/05 05:16:18;;;;;;;114.72;30.38;;;;;;;;;;2105914;28;20138;-41
2022/11/05 05:17:19;;;;;;;116.68;30.33;;;;;;;;;;2105720;28;20048;-41
2022/11/05 05:18:20;;;;;;;108.07;29.20;;;;;;;;;;2105833;28;20048;-41
2022/11/05 05:19:22;;;;;;;98.05;29.77;;;;;;;;;;2105875;28;20048;-41
2022/11/05 05:21:43;;;;;;;104.50;31.90;;;;;;;;;;2105850;28;20053;-41
2022/11/05 05:22:50;;;;;;;86.70;30.08;;;;;;;;;;2105869;28;20044;-41
2022/11/05 05:23:51;;;;;;;101.53;32.15;;;;;;;;;;2105637;28;20047;-41
2022/11/05 05:24:52;;;;;;;88.23;29.60;;;;;;;;;;2106096;28;20072;-45
2022/11/05 05:25:53;;;;;;;103.03;33.15;;;;;;;;;;2105853;28;20055;-45
2022/11/05 05:26:55;;;;;;;98.27;30.03;;;;;;;;;;2105752;28;20040;-45
2022/11/05 05:27:56;;;;;;;94.63;33.03;;;;;;;;;;2105835;28;20052;-44
2022/11/05 05:28:57;;;;;;;104.22;34.50;;;;;;;;;;2105709;28;20052;-44
2022/11/05 05:29:59;;;;;;;93.97;33.28;;;;;;;;;;2106333;28;20056;-44
2022/11/05 05:31:00;;;;;;;97.30;31.77;;;;;;;;;;2106128;28;20087;-44
2022/11/05 05:32:01;;;;;;;102.45;32.60;;;;;;;;;;2105744;28;20501;-44
2022/11/05 05:33:04;;;;;;;97.53;32.53;;;;;;;;;;2105992;28;20106;-41
2022/11/05 05:34:05;;;;;;;83.18;29.85;;;;;;;;;;2105827;28;20059;-41
2022/11/05 05:35:06;;;;;;;114.25;27.75;;;;;;;;;;2105633;28;20079;-41
2022/11/05 05:36:08;;;;;;;148.63;27.45;;;;;;;;;;2105932;28;20054;-46
2022/11/05 05:37:13;;;;;;;89.35;27.10;;;;;;;;;;2105815;28;20047;-44
2022/11/05 05:38:14;;;;;;;155.40;26.65;;;;;;;;;;2105688;28;20051;-46
2022/11/05 05:39:15;;;;;;;178.27;27.48;;;;;;;;;;2105960;28;20436;-47
2022/11/05 05:40:16;;;;;;;138.80;27.30;;;;;;;;;;2105966;28;20040;-45
2022/11/05 05:41:18;;;;;;;;;;;;;;;;;;2105657;28;20063;-46
2022/11/05 05:42:20;;;;;;;109.53;21.85;;;;;;;;;;2105504;28;19927;-41
2022/11/05 05:43:21;;;;;;;140.43;27.05;;;;;;;;;;2105470;28;20055;-41
2022/11/05 05:44:22;;;;;;;94.05;23.23;;;;;;;;;;2105446;28;20059;-41
2022/11/05 05:45:23;;;;;;;155.18;31.65;;;;;;;;;;2105234;28;20139;-41
2022/11/05 05:46:24;;;;;;;163.15;31.98;;;;;;;;;;2105468;28;20067;-46
2022/11/05 05:47:25;;;;;;;88.63;20.98;;;;;;;;;;2106644;28;20067;-42
2022/11/05 05:48:26;;;;;;;150.95;30.85;;;;;;;;;;2106370;28;20067;-41
2022/11/05 05:49:27;;;;;;;117.83;30.80;;;;;;;;;;2106714;28;20046;-41
2022/11/05 05:50:28;;;;;;;126.05;31.40;;;;;;;;;;2106873;28;20048;-41
2022/11/05 05:51:29;;;;;;;126.57;29.95;;;;;;;;;;2106932;28;20109;-41
2022/11/05 05:52:31;;;;;;;154.00;34.05;;;;;;;;;;2106982;28;20105;-41
2022/11/05 05:53:32;;;;;;;144.18;34.63;;;;;;;;;;2106907;28;20048;-45
2022/11/05 05:54:33;;;;;;;110.60;33.28;;;;;;;;;;2107011;28;20048;-41
2022/11/05 05:55:42;;;;;;;131.18;33.20;;;;;;;;;;2106927;28;20048;-45
2022/11/05 05:56:43;;;;;;;129.43;32.63;;;;;;;;;;2107066;28;20056;-41
2022/11/05 05:57:44;;;;;;;145.88;32.60;;;;;;;;;;2106976;28;20052;-41
2022/11/05 05:58:45;;;;;;;141.48;35.75;;;;;;;;;;2106873;28;20055;-41
2022/11/05 05:59:46;;;;;;;124.03;30.63;;;;;;;;;;2106936;28;20052;-41
2022/11/05 06:00:47;;;;;;;110.97;34.08;;;;;;;;;;2107015;28;20288;-49
2022/11/05 06:01:48;;;;;;;116.30;31.60;;;;;;;;;;2106995;28;20059;-42
2022/11/05 06:02:49;;;;;;;137.43;35.38;;;;;;;;;;2106816;28;20583;-41
2022/11/05 06:03:51;;;;;;;125.97;33.25;;;;;;;;;;2106963;28;20603;-45
2022/11/05 06:04:52;;;;;;;128.15;34.97;;;;;;;;;;2106760;28;20397;-41
2022/11/05 06:05:53;;;;;;;119.07;35.67;;;;;;;;;;2106818;28;20051;-46
2022/11/05 06:06:54;;;;;;;100.32;32.58;;;;;;;;;;2106775;28;20488;-45
2022/11/05 06:07:56;;;;;;;108.68;34.40;;;;;;;;;;2106820;28;20044;-44
2022/11/05 06:08:57;;;;;;;109.03;34.20;;;;;;;;;;2106858;28;20051;-41
2022/11/05 06:09:58;;;;;;;97.13;32.92;;;;;;;;;;2106521;28;20351;-41
2022/11/05 06:10:59;;;;;;;100.20;32.50;;;;;;;;;;2106894;28;20052;-42
2022/11/05 06:12:01;;;;;;;95.10;32.55;;;;;;;;;;2106709;28;20450;-41
2022/11/05 06:13:02;;;;;;;87.78;27.63;;;;;;;;;;2106875;28;20161;-41
2022/11/05 06:14:03;;;;;;;105.53;33.55;;;;;;;;;;2098357;28;20052;-42
2022/11/05 06:15:04;;;;;;;88.57;31.00;;;;;;;;;;2098552;28;20048;-46
2022/11/05 06:16:06;;;;;;;90.30;32.45;;;;;;;;;;2098217;28;20561;-41
2022/11/05 06:17:07;;;;;;;;;;;;;;;;;;2099067;28;20191;-42
2022/11/05 06:18:08;;;;;;;113.55;31.95;;;;;;;;;;2098385;28;20401;-45
2022/11/05 06:19:09;;;;;;;98.75;31.27;;;;;;;;;;2098466;28;20044;-41
2022/11/05 06:20:11;;;;;;;108.63;33.07;;;;;;;;;;2098447;28;20206;-46
2022/11/05 06:21:13;;;;;;;97.50;34.22;;;;;;;;;;2098572;28;20052;-42
2022/11/05 06:22:14;;;;;;;108.30;34.05;;;;;;;;;;2098332;28;20501;-41
2022/11/05 06:23:16;;;;;;;110.20;35.33;;;;;;;;;;2098324;28;20563;-41
2022/11/05 06:24:17;;;;;;;97.47;32.33;;;;;;;;;;2098446;28;20048;-46
2022/11/05 06:25:18;;;;;;;84.47;24.63;;;;;;;;;;2098358;28;20045;-41
2022/11/05 06:26:19;;;;;;;107.47;33.97;;;;;;;;;;2101551;28;20045;-41
2022/11/05 06:27:20;;;;;;;108.80;33.78;;;;;;;;;;2108744;28;20397;-41
2022/11/05 06:28:21;;;;;;;103.90;34.50;;;;;;;;;;2102209;28;20058;-41
2022/11/05 06:29:22;;;;;;;94.32;32.30;;;;;;;;;;2106897;28;20070;-41
2022/11/05 06:30:23;;;;;;;96.95;33.35;;;;;;;;;;2106874;28;20519;-41
2022/11/05 06:31:24;;;;;;;81.13;24.00;;;;;;;;;;2107155;28;20236;-46
2022/11/05 06:32:25;;;;;;;104.82;32.58;;;;;;;;;;2106992;28;20044;-45
2022/11/05 06:33:26;;;;;;;99.85;31.67;;;;;;;;;;2106972;28;20052;-45
2022/11/05 06:34:28;;;;;;;99.73;30.47;;;;;;;;;;2107025;28;20048;-41
2022/11/05 06:35:29;;;;;;;92.68;29.00;;;;;;;;;;2106804;28;20642;-41
2022/11/05 06:36:30;;;;;;;96.35;29.45;;;;;;;;;;2106781;28;20048;-41
2022/11/05 06:37:32;;;;;;;99.20;29.15;;;;;;;;;;2107150;28;20264;-45
2022/11/05 06:38:35;;;;;;;104.03;26.77;;;;;;;;;;2106772;28;20059;-45
2022/11/05 06:39:36;;;;;;;101.43;28.55;;;;;;;;;;2106890;28;20093;-46
2022/11/05 06:40:37;;;;;;;115.83;28.43;;;;;;;;;;2107061;28;20128;-41
2022/11/05 06:41:38;;;;;;;108.05;27.95;;;;;;;;;;2107154;28;20055;-41
2022/11/05 06:42:59;;;;;;;106.55;28.02;;;;;;;;;;2106628;28;20048;-41
2022/11/05 06:44:00;;;;;;;114.78;29.13;;;;;;;;;;2107018;28;20047;-42
2022/11/05 06:45:02;;;;;;;105.78;28.77;;;;;;;;;;2106834;28;20044;-41